createdAt,value
2023-04-13T00:09:47.642Z,5.00
2023-04-13T00:22:47.618Z,4.80
2023-04-13T00:35:47.602Z,4.40
2023-04-13T00:48:47.611Z,4.40
2023-04-13T01:01:47.665Z,4.40
2023-04-13T01:14:47.599Z,4.10
2023-04-13T01:27:47.664Z,4.00
2023-04-13T01:40:47.702Z,4.00
2023-04-13T01:53:47.675Z,3.80
2023-04-13T02:06:47.640Z,3.60
2023-04-13T02:19:47.653Z,3.70
2023-04-13T02:32:47.690Z,3.40
2023-04-13T02:45:47.721Z,3.90
2023-04-13T02:58:47.676Z,3.30
2023-04-13T03:11:47.713Z,3.25
2023-04-13T03:24:47.725Z,3.10
2023-04-13T03:37:47.720Z,3.20
2023-04-13T03:50:47.743Z,3.30
2023-04-13T04:03:47.877Z,3.10
2023-04-13T04:16:47.802Z,3.00
2023-04-13T04:29:47.817Z,2.95
2023-04-13T04:42:47.789Z,2.80
2023-04-13T04:56:47.813Z,2.80
2023-04-13T05:10:47.909Z,2.80
2023-04-13T05:24:47.833Z,2.90
2023-04-13T05:38:47.867Z,3.80
2023-04-13T05:52:47.848Z,4.00
2023-04-13T06:06:47.866Z,4.60
2023-04-13T06:20:47.889Z,4.30
2023-04-13T06:34:47.867Z,4.30
2023-04-13T06:48:47.903Z,4.20
2023-04-13T07:02:47.964Z,6.60
2023-04-13T07:16:47.914Z,7.40
2023-04-13T07:30:47.959Z,8.60
2023-04-13T07:44:48.022Z,8.10
2023-04-13T07:55:47.958Z,8.25
2023-04-13T08:06:47.965Z,8.00
2023-04-13T08:17:48.039Z,7.65
2023-04-13T08:28:48.035Z,8.30
2023-04-13T08:42:48.005Z,7.40
2023-04-13T08:53:47.998Z,7.40
2023-04-13T09:07:48.027Z,6.40
2023-04-13T09:21:48.031Z,6.70
2023-04-13T09:35:48.040Z,6.70
2023-04-13T09:48:47.994Z,6.00
2023-04-13T10:02:48.174Z,5.50
2023-04-13T10:16:48.095Z,5.20
2023-04-13T10:30:48.041Z,5.20
2023-04-13T10:43:48.065Z,4.70
2023-04-13T10:56:48.082Z,4.30
2023-04-13T11:09:48.111Z,4.90
2023-04-13T11:23:48.113Z,14.20
2023-04-13T11:34:48.130Z,13.10
2023-04-13T11:48:48.139Z,13.20
2023-04-13T12:03:00.878Z,12.45
2023-04-13T12:17:03.585Z,11.55
2023-04-13T12:30:48.162Z,10.55
2023-04-13T12:44:48.163Z,9.80
2023-04-13T12:58:48.178Z,8.80
2023-04-13T13:12:48.235Z,7.70
2023-04-13T13:27:11.990Z,7.50
2023-04-13T13:40:48.279Z,6.45
2023-04-13T13:54:48.198Z,6.10
2023-04-13T14:08:48.211Z,5.60
2023-04-13T14:22:48.207Z,4.70
2023-04-13T14:35:48.224Z,4.40
2023-04-13T14:46:48.234Z,4.00
2023-04-13T15:00:48.262Z,4.20
2023-04-13T15:11:48.288Z,3.90
2023-04-13T15:25:48.284Z,3.50
2023-04-13T15:36:48.301Z,3.60
2023-04-13T15:50:50.789Z,3.10
2023-04-13T16:01:48.574Z,2.85
2023-04-13T16:12:48.296Z,2.80
2023-04-13T16:23:48.336Z,2.60
2023-04-13T16:37:48.334Z,2.60
2023-04-13T16:48:48.569Z,2.90
2023-04-13T17:02:48.443Z,3.00
2023-04-13T17:13:48.365Z,3.00
2023-04-13T17:27:48.806Z,3.30
2023-04-13T17:38:48.376Z,2.90
2023-04-13T17:49:48.382Z,3.10
2023-04-13T18:00:48.405Z,2.60
2023-04-13T18:14:48.409Z,2.60
2023-04-13T18:28:48.446Z,2.10
2023-04-13T18:41:48.513Z,3.40
2023-04-13T18:54:48.637Z,3.20
2023-04-13T19:07:48.511Z,3.30
2023-04-13T19:20:48.507Z,3.20
2023-04-13T19:33:48.514Z,3.80
2023-04-13T19:46:48.508Z,3.90
2023-04-13T19:57:48.481Z,3.50
2023-04-13T20:10:48.685Z,3.70
2023-04-13T20:22:48.488Z,3.60
2023-04-13T20:35:48.502Z,3.40
2023-04-13T20:48:48.948Z,3.20
2023-04-13T21:01:48.544Z,3.30
2023-04-13T21:14:48.525Z,3.20
2023-04-13T21:24:48.531Z,2.90
2023-04-13T21:34:48.525Z,2.65
2023-04-13T21:47:48.621Z,2.60
2023-04-13T22:00:48.520Z,2.50
2023-04-13T22:10:48.745Z,2.30
2023-04-13T22:20:48.586Z,2.10
2023-04-13T22:30:48.617Z,2.10
2023-04-13T22:40:48.749Z,2.00
2023-04-13T22:50:48.622Z,2.00
2023-04-13T23:00:48.775Z,1.90
2023-04-13T23:10:48.797Z,1.80
2023-04-13T23:20:48.642Z,1.90
2023-04-13T23:30:48.632Z,1.70
2023-04-13T23:40:48.829Z,1.50
2023-04-13T23:50:48.644Z,1.40
